Time;durP1;ratioP1;P1;durP2;ratioP2;P2;SDS_P1;SDS_P2;PMS_P1;PMS_P2;Temp;Humidity;BMP_temperature;BMP_pressure;BME280_temperature;BME280_humidity;BME280_pressure;Samples;Min_cycle;Max_cycle;Signal;HPM_P1;HPM_P2
2022/07/04 00:00:48;;;;;;;7.72;2.42;;;;;;;14.70;73.40;101851.19;4861262;29;20025;-73
2022/07/04 00:03:13;;;;;;;4.20;2.22;;;;;;;14.70;73.22;101851.19;4864340;29;20039;-73
2022/07/04 00:05:39;;;;;;;5.72;2.50;;;;;;;14.66;73.65;101848.09;4864867;29;20033;-74
2022/07/04 00:08:04;;;;;;;2.88;2.30;;;;;;;14.61;74.27;101845.22;4881750;29;20040;-74
2022/07/04 00:10:30;;;;;;;4.65;2.50;;;;;;;14.72;73.70;101846.38;4881669;29;20085;-73
2022/07/04 00:12:56;;;;;;;6.32;2.63;;;;;;;14.50;74.22;101835.06;4900427;29;20151;-74
2022/07/04 00:15:22;;;;;;;4.43;2.38;;;;;;;14.51;74.91;101847.63;4897234;29;20108;-73
2022/07/04 00:17:47;;;;;;;6.28;2.42;;;;;;;14.57;75.27;101843.16;4881167;29;20469;-72
2022/07/04 00:20:12;;;;;;;3.40;2.30;;;;;;;14.53;75.77;101837.34;4881656;29;20057;-74
2022/07/04 00:22:38;;;;;;;5.05;2.40;;;;;;;14.56;75.88;101842.31;4864568;29;20116;-72
2022/07/04 00:25:04;;;;;;;4.18;2.47;;;;;;;14.51;75.71;101836.75;4868271;29;20037;-74
2022/07/04 00:27:30;;;;;;;4.10;2.47;;;;;;;14.51;76.26;101836.75;4899672;29;20489;-72
2022/07/04 00:29:55;;;;;;;5.93;2.53;;;;;;;14.52;77.03;101835.66;4897324;29;20108;-73
2022/07/04 00:32:21;;;;;;;5.75;2.33;;;;;;;14.42;77.70;101835.34;4880027;29;21930;-72
2022/07/04 00:34:46;;;;;;;4.90;2.28;;;;;;;14.49;77.46;101836.97;4874340;29;20603;-72
2022/07/04 00:37:12;;;;;;;7.43;2.40;;;;;;;14.45;76.30;101837.66;4846092;29;20029;-72
2022/07/04 00:39:37;;;;;;;5.90;2.58;;;;;;;14.39;77.41;101835.81;4862279;29;20030;-72
2022/07/04 00:42:03;;;;;;;4.20;2.55;;;;;;;14.41;76.36;101841.88;4862708;29;20465;-73
2022/07/04 00:44:30;;;;;;;3.20;2.45;;;;;;;14.42;76.77;101841.66;4845442;29;20081;-73
2022/07/04 00:46:55;;;;;;;6.43;2.83;;;;;;;14.35;77.51;101833.53;4844965;29;20363;-73
2022/07/04 00:49:21;;;;;;;7.38;2.72;;;;;;;14.36;76.09;101835.22;4858288;29;20041;-72
2022/07/04 00:51:47;;;;;;;5.35;2.53;;;;;;;14.34;76.51;101836.47;4873286;29;20594;-74
2022/07/04 00:54:15;;;;;;;4.32;2.70;;;;;;;14.28;77.08;101840.97;4865405;29;20042;-71
2022/07/04 00:56:42;;;;;;;5.60;2.80;;;;;;;14.32;76.50;101836.72;4862297;29;20077;-71
2022/07/04 00:59:09;;;;;;;5.25;2.90;;;;;;;14.26;77.65;101839.50;4862635;29;20412;-71
2022/07/04 01:01:35;;;;;;;5.28;2.70;;;;;;;14.18;77.36;101835.19;4858658;29;20055;-72
2022/07/04 01:04:02;;;;;;;6.60;2.85;;;;;;;14.20;77.65;101832.25;4862579;29;20541;-72
2022/07/04 01:06:28;;;;;;;3.88;2.67;;;;;;;14.14;77.64;101833.97;4861985;29;20033;-71
2022/07/04 01:08:54;;;;;;;4.63;2.60;;;;;;;14.10;77.65;101830.03;4860980;29;20049;-72
2022/07/04 01:11:19;;;;;;;4.18;2.75;;;;;;;14.11;77.27;101823.53;4863801;29;20056;-72
2022/07/04 01:13:45;;;;;;;5.78;2.88;;;;;;;14.06;76.66;101821.50;4880515;29;20029;-72
2022/07/04 01:16:11;;;;;;;5.05;2.70;;;;;;;14.08;78.00;101824.00;4880649;29;20033;-71
2022/07/04 01:18:37;;;;;;;4.28;2.67;;;;;;;14.04;77.83;101822.75;4880418;29;20374;-72
2022/07/04 01:21:03;;;;;;;6.68;3.00;;;;;;;14.06;76.08;101815.22;4880541;29;20040;-71
2022/07/04 01:23:28;;;;;;;4.70;2.78;;;;;;;14.12;76.22;101817.03;4867503;29;20034;-71
2022/07/04 01:25:55;;;;;;;5.35;2.70;;;;;;;14.12;76.47;101819.78;4861911;29;20038;-72
2022/07/04 01:28:24;;;;;;;4.60;2.97;;;;;;;14.09;76.86;101814.78;4861512;29;20052;-71
2022/07/04 01:30:50;;;;;;;7.60;3.33;;;;;;;14.08;75.91;101808.47;4852887;29;20049;-72
2022/07/04 01:33:17;;;;;;;4.70;2.80;;;;;;;14.06;76.13;101804.34;4897975;29;20123;-72
2022/07/04 01:35:43;;;;;;;4.43;2.95;;;;;;;14.03;76.15;101800.16;4881942;29;20496;-71
2022/07/04 01:38:09;;;;;;;2.97;2.53;;;;;;;14.02;76.15;101798.50;4886415;29;20033;-72
2022/07/04 01:40:34;;;;;;;6.47;2.70;;;;;;;13.93;76.26;101800.66;4879387;29;20055;-72
2022/07/04 01:42:59;;;;;;;5.68;3.47;;;;;;;13.96;76.38;101799.41;4879770;29;20052;-71
2022/07/04 01:45:25;;;;;;;5.53;2.60;;;;;;;14.00;76.14;101796.00;4880075;29;20108;-71
2022/07/04 01:47:50;;;;;;;2.95;2.70;;;;;;;13.93;78.21;101795.22;4879852;29;20155;-72
2022/07/04 01:50:16;;;;;;;6.03;2.72;;;;;;;13.88;78.05;101788.81;4879630;29;20029;-71
2022/07/04 01:52:42;;;;;;;7.88;2.95;;;;;;;13.86;78.43;101802.66;4880024;29;20111;-72
2022/07/04 01:55:09;;;;;;;4.43;3.03;;;;;;;13.84;78.79;101796.56;4876655;29;20037;-71
2022/07/04 01:57:35;;;;;;;3.20;2.75;;;;;;;13.72;78.41;101798.38;4862352;29;20057;-71
2022/07/04 02:02:44;;;;;;;5.80;3.20;;;;;;;13.75;78.34;101787.03;4874566;29;20059;-72
2022/07/04 02:05:10;;;;;;;4.03;2.92;;;;;;;13.72;79.58;101782.88;4878408;29;20033;-72
2022/07/04 02:07:35;;;;;;;5.63;2.92;;;;;;;13.68;78.80;101780.81;4879533;29;20419;-71
2022/07/04 02:10:01;;;;;;;6.13;3.30;;;;;;;13.68;79.40;101788.97;4879653;29;20461;-72
2022/07/04 02:15:10;;;;;;;6.15;3.38;;;;;;;13.51;80.40;101791.44;4860817;29;20528;-72
2022/07/04 02:17:35;;;;;;;3.63;3.17;;;;;;;13.50;81.67;101782.44;4876493;29;20061;-72
2022/07/04 02:20:01;;;;;;;5.50;3.30;;;;;;;13.46;82.92;101784.75;4879584;29;20041;-71
2022/07/04 02:22:26;;;;;;;4.50;3.50;;;;;;;13.43;82.27;101778.94;4876007;29;20039;-72
2022/07/04 02:24:51;;;;;;;9.07;2.90;;;;;;;13.48;82.07;101776.38;4877938;29;20033;-72
2022/07/04 02:27:17;;;;;;;4.53;3.30;;;;;;;13.47;81.04;101785.63;4878577;29;20470;-72
2022/07/04 02:29:43;;;;;;;6.00;3.05;;;;;;;13.38;82.10;101792.38;4862341;29;20068;-73
2022/07/04 02:32:09;;;;;;;6.95;3.10;;;;;;;13.34;81.80;101797.41;4859763;29;20053;-74
2022/07/04 02:34:53;;;;;;;6.30;3.38;;;;;;;13.30;81.51;101794.28;4860198;29;20037;-75
2022/07/04 02:37:18;;;;;;;5.93;3.72;;;;;;;13.29;81.40;101789.88;4859211;29;20041;-72
2022/07/04 02:39:43;;;;;;;5.03;3.35;;;;;;;13.33;82.24;101800.31;4855705;29;20035;-71
2022/07/04 02:42:09;;;;;;;4.20;3.45;;;;;;;13.35;80.89;101804.53;4858483;29;20112;-71
2022/07/04 02:44:34;;;;;;;6.93;3.60;;;;;;;13.39;81.22;101794.03;4858178;29;20393;-72
2022/07/04 02:47:00;;;;;;;5.18;3.30;;;;;;;13.36;82.45;101798.03;4860523;29;20125;-72
2022/07/04 02:49:25;;;;;;;5.20;3.63;;;;;;;13.35;81.77;101798.25;4858431;29;20712;-71
2022/07/04 02:51:51;;;;;;;6.60;3.65;;;;;;;13.32;83.47;101804.09;4858023;29;20029;-71
2022/07/04 02:54:16;;;;;;;5.75;3.33;;;;;;;13.28;82.63;101796.38;4858522;29;20090;-72
2022/07/04 02:56:42;;;;;;;6.18;3.47;;;;;;;13.35;82.98;101800.97;4859305;29;20038;-72
2022/07/04 02:59:07;;;;;;;6.22;3.67;;;;;;;13.26;83.99;101806.63;4860348;29;20029;-71
2022/07/04 03:01:33;;;;;;;5.38;3.55;;;;;;;13.23;84.75;101804.34;4855379;29;20443;-71
2022/07/04 03:03:58;;;;;;;5.80;3.25;;;;;;;13.25;84.96;101804.97;4858601;29;20041;-72
2022/07/04 03:06:24;;;;;;;4.97;3.33;;;;;;;13.28;83.98;101809.13;4860335;29;20065;-71
2022/07/04 03:08:52;;;;;;;9.40;4.15;;;;;;;13.23;85.74;101809.78;4859095;29;20040;-71
2022/07/04 03:11:18;;;;;;;4.35;3.40;;;;;;;13.29;84.66;101810.81;4860319;29;20045;-70
2022/07/04 03:13:43;;;;;;;7.32;3.55;;;;;;;13.22;84.97;101812.72;4859580;29;20045;-71
2022/07/04 03:16:08;;;;;;;5.85;3.45;;;;;;;13.20;85.47;101823.81;4859898;29;20094;-71
2022/07/04 03:18:33;;;;;;;6.45;3.50;;;;;;;13.18;86.18;101815.06;4859363;29;20466;-71
2022/07/04 03:21:00;;;;;;;9.02;3.70;;;;;;;13.22;86.11;101824.44;4858497;29;20230;-71
2022/07/04 03:23:25;;;;;;;3.88;3.50;;;;;;;13.15;86.92;101820.09;4865776;29;20434;-72
2022/07/04 03:25:50;;;;;;;5.30;3.50;;;;;;;13.15;86.53;101820.94;4857732;29;20037;-72
2022/07/04 03:28:16;;;;;;;7.38;3.58;;;;;;;13.24;87.29;101827.78;4860121;29;20044;-72
2022/07/04 03:30:41;;;;;;;7.10;4.13;;;;;;;13.14;87.52;101827.41;4866133;29;20128;-71
2022/07/04 03:33:06;;;;;;;5.13;3.40;;;;;;;13.14;87.92;101827.41;4877336;29;20488;-71
2022/07/04 03:35:31;;;;;;;4.43;3.55;;;;;;;13.09;88.02;101833.50;4861907;29;20056;-71
2022/07/04 03:37:57;;;;;;;8.20;3.85;;;;;;;13.16;88.15;101832.63;4877640;29;20453;-72
2022/07/04 03:40:23;;;;;;;5.30;3.50;;;;;;;13.20;86.91;101837.41;4877317;29;20433;-71
2022/07/04 03:42:48;;;;;;;9.25;4.07;;;;;;;13.15;87.47;101837.25;4878364;29;20037;-71
2022/07/04 03:45:14;;;;;;;6.07;3.78;;;;;;;13.20;87.98;101844.75;4877983;29;20025;-72
2022/07/04 03:47:39;;;;;;;4.95;3.70;;;;;;;13.24;88.89;101848.66;4877623;29;20408;-71
2022/07/04 03:50:05;;;;;;;6.03;3.83;;;;;;;13.18;87.52;101855.84;4870913;29;20156;-71
2022/07/04 03:52:31;;;;;;;6.57;3.78;;;;;;;13.21;87.43;101855.41;4876726;29;20135;-72
2022/07/04 03:54:56;;;;;;;6.60;4.32;;;;;;;13.17;88.92;101854.16;4869763;29;20509;-70
2022/07/04 03:57:21;;;;;;;9.15;4.35;;;;;;;13.17;88.35;101856.88;4859657;29;20041;-72
2022/07/04 03:59:47;;;;;;;7.43;3.95;;;;;;;13.16;88.75;101849.75;4859671;29;20113;-71
2022/07/04 04:02:12;;;;;;;5.32;3.53;;;;;;;13.21;88.76;101858.13;4869016;29;20076;-71
2022/07/04 04:07:21;;;;;;;6.38;3.55;;;;;;;13.26;88.91;101861.00;4881653;29;20044;-70
2022/07/04 04:09:47;;;;;;;12.02;4.18;;;;;;;13.28;88.96;101869.75;4880121;29;20028;-70
2022/07/04 04:12:12;;;;;;;11.48;4.10;;;;;;;13.24;89.90;101857.69;4880736;29;20076;-71
2022/07/04 04:14:37;;;;;;;6.72;3.95;;;;;;;13.29;91.57;101848.88;4881478;29;20396;-71
2022/07/04 04:17:03;;;;;;;6.45;3.95;;;;;;;13.28;90.51;101847.19;4884774;29;20033;-71
2022/07/04 04:19:28;;;;;;;6.68;4.00;;;;;;;13.37;89.88;101861.38;4879413;29;20496;-72
2022/07/04 04:21:53;;;;;;;7.75;3.88;;;;;;;13.37;90.33;101855.94;4879438;29;20029;-72
2022/07/04 04:24:19;;;;;;;9.15;4.03;;;;;;;13.39;90.53;101867.44;4881845;29;20136;-71
2022/07/04 04:26:44;;;;;;;8.77;4.35;;;;;;;13.34;90.99;101873.53;4877954;29;20036;-71
2022/07/04 04:29:09;;;;;;;5.18;3.78;;;;;;;13.41;91.92;101873.50;4880935;29;20045;-72
2022/07/04 04:31:35;;;;;;;9.02;4.07;;;;;;;13.45;91.94;101880.16;4880646;29;20096;-72
2022/07/04 04:34:01;;;;;;;11.18;4.40;;;;;;;13.47;92.30;101883.50;4881015;29;20100;-71
2022/07/04 04:36:26;;;;;;;8.25;4.25;;;;;;;13.50;93.32;101882.19;4879718;29;20174;-71
2022/07/04 04:38:52;;;;;;;7.25;3.80;;;;;;;13.52;94.56;101885.56;4879477;29;20056;-71
2022/07/04 04:41:17;;;;;;;9.70;4.15;;;;;;;13.56;95.20;101892.22;4881212;29;20037;-71
2022/07/04 04:43:43;;;;;;;9.65;3.70;;;;;;;13.57;93.54;101875.69;4880368;29;20029;-71
2022/07/04 04:46:09;;;;;;;11.77;3.70;;;;;;;13.62;94.03;101877.75;4881012;29;20033;-72
2022/07/04 04:48:34;;;;;;;9.63;3.70;;;;;;;13.65;94.55;101878.13;4880450;29;20534;-71
2022/07/04 04:51:00;;;;;;;8.80;3.92;;;;;;;13.63;93.66;101866.66;4890641;29;20044;-71
2022/07/04 04:53:25;;;;;;;8.77;3.67;;;;;;;13.72;93.91;101877.25;4899660;29;20037;-72
2022/07/04 04:55:54;;;;;;;6.80;4.07;;;;;;;13.73;96.03;101877.03;4899183;29;20032;-71
2022/07/04 04:58:20;;;;;;;9.23;4.05;;;;;;;13.77;98.34;101872.00;4893994;29;20053;-71
2022/07/04 05:00:45;;;;;;;9.02;3.72;;;;;;;13.83;93.59;101873.84;4875688;29;20062;-72
2022/07/04 05:03:11;;;;;;;9.45;3.88;;;;;;;13.89;93.68;101862.06;4879280;29;20441;-72
2022/07/04 05:05:37;;;;;;;9.55;3.92;;;;;;;13.92;93.95;101864.34;4880843;29;20035;-72
2022/07/04 05:08:02;;;;;;;11.07;4.13;;;;;;;13.97;95.64;101867.19;4882256;29;20088;-71
2022/07/04 05:10:27;;;;;;;10.38;4.20;;;;;;;14.04;93.88;101864.44;4880327;29;20120;-71
2022/07/04 05:12:53;;;;;;;11.68;4.00;;;;;;;14.06;94.43;101864.22;4892899;29;20037;-72
2022/07/04 05:15:18;;;;;;;8.25;3.75;;;;;;;14.13;95.39;101857.66;4880680;29;20104;-71
2022/07/04 05:17:43;;;;;;;7.03;4.10;;;;;;;14.15;94.15;101857.44;4879698;29;20033;-72
2022/07/04 05:20:09;;;;;;;8.55;4.38;;;;;;;14.17;93.27;101852.59;4879477;29;20473;-72
2022/07/04 05:22:34;;;;;;;9.45;4.13;;;;;;;14.24;93.48;101855.25;4863745;29;20545;-71
2022/07/04 05:25:00;;;;;;;8.80;3.80;;;;;;;14.28;nan;101849.13;4879458;29;20089;-71
2022/07/04 05:27:26;;;;;;;8.18;4.13;;;;;;;14.38;93.18;101861.38;4880574;29;20048;-72
2022/07/04 05:29:51;;;;;;;8.88;3.78;;;;;;;14.37;93.60;101852.38;4877625;29;20389;-71
2022/07/04 05:32:16;;;;;;;7.65;3.88;;;;;;;14.43;93.39;101858.81;4860804;29;20052;-72
2022/07/04 05:34:42;;;;;;;10.30;4.03;;;;;;;14.45;93.58;101857.53;4861475;29;20037;-71
2022/07/04 05:37:07;;;;;;;8.57;3.80;;;;;;;14.49;92.47;101863.34;4860868;29;20037;-71
2022/07/04 05:39:33;;;;;;;8.65;3.85;;;;;;;14.55;95.26;101870.59;4861026;29;20067;-71
2022/07/04 05:41:58;;;;;;;10.27;4.10;;;;;;;14.54;93.14;101874.41;4859961;29;20033;-72
2022/07/04 05:44:24;;;;;;;9.52;4.22;;;;;;;14.57;94.09;101871.22;4860216;29;20378;-72
2022/07/04 05:46:49;;;;;;;11.02;4.20;;;;;;;14.59;94.62;101874.56;4860582;29;20458;-71
2022/07/04 05:49:14;;;;;;;13.20;4.93;;;;;;;14.66;94.95;101877.22;4859528;29;20057;-72
2022/07/04 05:51:40;;;;;;;8.50;4.28;;;;;;;14.68;93.08;101867.78;4861442;29;20113;-72
2022/07/04 05:54:05;;;;;;;9.63;4.68;;;;;;;14.78;94.89;101877.28;4860204;29;20064;-71
2022/07/04 05:56:30;;;;;;;6.13;4.20;;;;;;;14.84;97.97;101874.50;4861397;29;20037;-71
2022/07/04 05:58:56;;;;;;;8.40;4.10;;;;;;;14.93;94.28;101883.22;4860943;29;20052;-72
2022/07/04 06:01:21;;;;;;;9.30;4.03;;;;;;;14.98;93.68;101891.53;4869400;29;20073;-71
2022/07/04 06:03:47;;;;;;;11.73;4.50;;;;;;;15.02;95.29;101889.16;4860337;29;20034;-72
2022/07/04 06:06:12;;;;;;;12.98;4.32;;;;;;;15.10;95.97;101891.59;4861243;29;20030;-71
2022/07/04 06:08:38;;;;;;;9.95;4.18;;;;;;;15.13;93.51;101891.13;4860429;29;20042;-71
2022/07/04 06:11:03;;;;;;;9.80;4.13;;;;;;;15.19;94.01;101892.94;4859951;29;20523;-71
2022/07/04 06:13:28;;;;;;;9.30;4.18;;;;;;;15.30;94.36;101894.03;4879409;29;20033;-72
2022/07/04 06:15:54;;;;;;;7.28;4.25;;;;;;;15.31;91.58;101887.53;4874955;29;20033;-71
2022/07/04 06:18:20;;;;;;;7.15;4.15;;;;;;;15.35;90.89;101883.28;4861547;29;20120;-72
2022/07/04 06:20:45;;;;;;;8.52;4.03;;;;;;;15.41;90.89;101885.06;4860174;29;20217;-71
2022/07/04 06:23:10;;;;;;;10.85;5.07;;;;;;;15.54;91.29;101885.94;4860411;29;20033;-71
2022/07/04 06:25:36;;;;;;;8.10;3.90;;;;;;;15.60;87.70;101887.72;4859517;29;20041;-71
2022/07/04 06:28:02;;;;;;;6.40;3.38;;;;;;;15.65;86.00;101887.84;4860498;29;20033;-72
2022/07/04 06:30:27;;;;;;;11.93;3.85;;;;;;;15.62;86.64;101877.41;4865575;29;20414;-71
2022/07/04 06:32:55;;;;;;;7.30;3.75;;;;;;;15.64;85.91;101891.66;4876561;29;20033;-72
2022/07/04 06:35:45;;;;;;;5.28;3.65;;;;;;;15.65;85.14;101890.59;4879501;29;20076;-71
2022/07/04 06:38:25;;;;;;;7.80;3.60;;;;;;;15.70;84.84;101874.34;4877293;29;20045;-74
2022/07/04 06:40:54;;;;;;;6.72;3.28;;;;;;;15.80;84.94;101883.91;4876819;29;20497;-74
2022/07/04 06:43:19;;;;;;;9.57;3.60;;;;;;;15.89;83.65;101882.47;4879295;29;20429;-73
2022/07/04 06:45:44;;;;;;;7.63;3.38;;;;;;;16.02;84.72;101881.41;4888667;29;20116;-73
2022/07/04 06:48:10;;;;;;;10.38;3.13;;;;;;;16.10;80.24;101892.81;4876944;29;20485;-73
2022/07/04 06:50:35;;;;;;;6.75;2.90;;;;;;;16.25;82.46;101891.53;4862140;29;20043;-71
2022/07/04 06:53:02;;;;;;;7.45;2.92;;;;;;;16.32;77.63;101885.94;4876902;29;20037;-72
2022/07/04 06:55:27;;;;;;;6.20;3.03;;;;;;;16.41;79.19;101895.44;4878217;29;20033;-71
2022/07/04 06:57:53;;;;;;;15.93;3.90;;;;;;;16.48;78.16;101888.75;4877286;29;20029;-70
2022/07/04 07:00:18;;;;;;;9.10;2.72;;;;;;;16.51;77.64;101878.44;4876866;29;20101;-70
2022/07/04 07:02:43;;;;;;;5.50;2.58;;;;;;;16.52;75.78;101880.94;4862385;29;20056;-72
2022/07/04 07:05:09;;;;;;;9.30;2.60;;;;;;;16.55;74.98;101876.91;4859750;29;20033;-73
2022/07/04 07:07:34;;;;;;;4.53;2.53;;;;;;;16.56;74.17;101873.06;4860368;29;20363;-71
2022/07/04 07:10:01;;;;;;;4.97;2.00;;;;;;;16.56;73.93;101881.28;4859955;29;20044;-72
2022/07/04 07:12:26;;;;;;;7.20;2.67;;;;;;;16.59;74.53;101869.88;4872218;29;20051;-71
2022/07/04 07:14:51;;;;;;;7.47;2.10;;;;;;;16.67;75.36;101883.16;4878291;29;20029;-73
2022/07/04 07:17:17;;;;;;;8.02;3.05;;;;;;;16.70;73.99;101869.03;4878719;29;20062;-72
2022/07/04 07:19:43;;;;;;;5.78;2.47;;;;;;;16.81;74.14;101876.34;4878780;29;20033;-72
2022/07/04 07:22:10;;;;;;;6.22;2.30;;;;;;;16.91;73.97;101870.31;4878623;29;20089;-74
2022/07/04 07:24:35;;;;;;;7.85;2.63;;;;;;;16.99;73.77;101869.09;4878644;29;20029;-73
2022/07/04 07:27:01;;;;;;;4.35;2.30;;;;;;;17.00;73.00;101874.31;4878129;29;20461;-72
2022/07/04 07:29:26;;;;;;;7.78;2.50;;;;;;;16.98;72.80;101887.41;4878615;29;20037;-72
2022/07/04 07:31:51;;;;;;;6.78;2.35;;;;;;;16.96;71.40;101884.06;4878432;29;20077;-72
2022/07/04 07:34:17;;;;;;;6.70;2.17;;;;;;;17.02;73.07;101887.75;4883321;29;20115;-73
2022/07/04 07:36:42;;;;;;;6.28;2.17;;;;;;;17.05;69.61;101894.63;4897295;29;20435;-73
2022/07/04 07:39:07;;;;;;;4.93;1.70;;;;;;;17.07;70.76;101890.56;4897490;29;20037;-73
2022/07/04 07:41:33;;;;;;;4.28;1.73;;;;;;;17.15;69.88;101892.94;4901233;29;20036;-71
2022/07/04 07:43:58;;;;;;;5.97;2.10;;;;;;;17.20;68.61;101885.91;4900581;29;20029;-73
2022/07/04 07:46:23;;;;;;;6.40;2.65;;;;;;;17.18;68.07;101884.22;4900791;29;20029;-73
2022/07/04 07:48:48;;;;;;;6.05;2.40;;;;;;;17.24;67.60;101876.13;4900531;29;20057;-72
2022/07/04 07:51:15;;;;;;;7.55;2.45;;;;;;;17.21;67.02;101873.88;4898407;29;20037;-72
2022/07/04 07:53:41;;;;;;;4.03;2.05;;;;;;;17.32;68.15;101881.22;4900864;29;20037;-71
2022/07/04 07:56:06;;;;;;;5.18;1.90;;;;;;;17.34;65.37;101876.31;4900846;29;20039;-72
2022/07/04 07:58:31;;;;;;;4.30;1.65;;;;;;;17.42;64.86;101875.94;4900680;29;20036;-72
2022/07/04 08:00:57;;;;;;;6.90;2.10;;;;;;;17.41;64.07;101870.66;4896815;29;20040;-73
2022/07/04 08:06:06;;;;;;;5.72;1.88;;;;;;;17.54;64.89;101868.47;4881718;29;20048;-73
2022/07/04 08:08:32;;;;;;;5.47;1.83;;;;;;;17.60;64.95;101863.91;4881850;29;20035;-73
2022/07/04 08:10:57;;;;;;;2.92;1.90;;;;;;;17.66;64.86;101867.56;4883708;29;20044;-71
2022/07/04 08:13:22;;;;;;;6.55;2.47;;;;;;;17.73;65.57;101867.41;4900513;29;20062;-71
2022/07/04 08:15:47;;;;;;;4.72;1.67;;;;;;;17.86;65.36;101867.91;4900435;29;20024;-71
2022/07/04 08:18:13;;;;;;;6.82;1.60;;;;;;;17.89;64.37;101869.34;4900202;29;20055;-71
2022/07/04 08:20:38;;;;;;;3.88;1.80;;;;;;;17.95;64.64;101870.25;4900024;29;20496;-73
2022/07/04 08:23:03;;;;;;;11.15;2.75;;;;;;;18.04;64.34;101871.47;4900041;29;20037;-73
2022/07/04 08:25:29;;;;;;;6.07;2.08;;;;;;;18.03;63.97;101880.78;4900267;29;20035;-72
2022/07/04 08:27:54;;;;;;;6.70;2.00;;;;;;;18.02;63.80;101888.16;4899995;29;20391;-72
2022/07/04 08:30:20;;;;;;;5.82;1.80;;;;;;;18.11;64.12;101885.84;4899666;29;20092;-74
2022/07/04 08:32:45;;;;;;;11.35;2.33;;;;;;;18.13;63.36;101885.59;4899458;29;20467;-72
2022/07/04 08:35:10;;;;;;;6.53;2.20;;;;;;;18.16;65.36;101885.09;4891820;29;20100;-74
2022/07/04 08:37:36;;;;;;;5.07;1.92;;;;;;;18.28;65.28;101885.81;4900082;29;20040;-71
2022/07/04 08:40:06;;;;;;;3.90;1.58;;;;;;;18.38;64.82;101883.22;4900076;29;20036;-74
2022/07/04 08:42:36;;;;;;;5.00;1.70;;;;;;;18.47;64.32;101891.84;4899902;29;20063;-72
2022/07/04 08:45:02;;;;;;;6.13;1.65;;;;;;;18.51;63.32;101892.16;4899813;29;20035;-74
2022/07/04 08:47:33;;;;;;;4.43;1.60;;;;;;;18.44;63.87;101889.63;4899949;29;20107;-71
2022/07/04 08:50:02;;;;;;;;;;;;;;;18.54;64.24;101888.91;4899976;29;20373;-71
2022/07/04 08:52:35;;;;;;;3.60;2.00;;;;;;;18.43;62.72;101887.94;4873735;29;19951;-71
2022/07/04 09:00:31;;;;;;;8.85;1.50;;;;;;;18.63;63.41;101886.56;4860385;29;20048;-71
2022/07/04 09:03:00;;;;;;;3.50;1.55;;;;;;;18.72;65.04;101894.13;4879100;29;20049;-74
2022/07/04 09:05:26;;;;;;;4.32;1.45;;;;;;;18.80;62.88;101897.50;4881153;29;20512;-74
2022/07/04 09:07:52;;;;;;;3.47;1.45;;;;;;;18.82;63.07;101889.84;4879592;29;20065;-72
2022/07/04 09:10:18;;;;;;;5.97;1.75;;;;;;;18.86;63.75;101886.34;4879777;29;20033;-74
2022/07/04 09:12:43;;;;;;;5.75;1.60;;;;;;;18.94;63.25;101888.63;4898986;29;20040;-75
2022/07/04 09:15:09;;;;;;;6.00;1.40;;;;;;;19.01;62.13;101899.44;4882281;29;20031;-73
2022/07/04 09:17:34;;;;;;;8.43;1.73;;;;;;;19.03;61.76;101880.78;4899398;29;20113;-74
2022/07/04 09:20:16;;;;;;;5.18;1.50;;;;;;;19.07;61.33;101879.19;4899114;29;20112;-72
2022/07/04 09:22:42;;;;;;;7.88;2.00;;;;;;;19.11;60.88;101883.09;4899297;29;20032;-72
2022/07/04 09:25:07;;;;;;;5.15;1.50;;;;;;;19.20;59.83;101888.94;4899000;29;20036;-71
2022/07/04 09:27:34;;;;;;;4.75;1.65;;;;;;;19.21;60.27;101887.84;4898969;29;20516;-73
2022/07/04 09:30:00;;;;;;;7.93;1.42;;;;;;;19.25;60.83;101885.44;4898647;29;20060;-72
2022/07/04 09:32:36;;;;;;;4.15;1.50;;;;;;;19.27;60.61;101886.81;4899193;29;20029;-72
2022/07/04 09:35:06;;;;;;;5.32;1.60;;;;;;;19.20;59.41;101897.16;4878629;29;20446;-72
2022/07/04 09:37:34;;;;;;;3.37;1.50;;;;;;;19.19;59.66;101883.69;4880320;29;20036;-74
2022/07/04 09:40:00;;;;;;;7.35;1.67;;;;;;;19.24;59.31;101894.75;4879615;29;20025;-71
2022/07/04 09:42:25;;;;;;;4.68;1.40;;;;;;;19.29;59.31;101878.31;4891106;29;20032;-73
2022/07/04 09:44:50;;;;;;;6.43;1.50;;;;;;;19.47;60.27;101875.22;4898867;29;20487;-72
2022/07/04 09:47:24;;;;;;;4.72;1.40;;;;;;;19.56;59.70;101883.81;4898632;29;20037;-71
2022/07/04 09:50:05;;;;;;;8.27;1.90;;;;;;;19.57;58.59;101879.97;4898665;29;20028;-71
2022/07/04 09:52:31;;;;;;;4.53;1.52;;;;;;;19.64;57.87;101874.25;4898833;29;20048;-74
2022/07/04 09:54:58;;;;;;;6.90;1.60;;;;;;;19.81;59.07;101874.19;4898680;29;20065;-72
2022/07/04 09:57:24;;;;;;;3.53;1.55;;;;;;;20.04;58.61;101883.13;4891031;29;20060;-72
2022/07/04 09:59:49;;;;;;;4.75;1.95;;;;;;;20.04;58.77;101881.22;4898570;29;20068;-72
2022/07/04 10:02:15;;;;;;;9.40;1.80;;;;;;;20.07;57.81;101871.63;4882126;29;20435;-72
2022/07/04 10:04:51;;;;;;;5.93;1.70;;;;;;;20.00;58.52;101872.69;4879838;29;20037;-72
2022/07/04 10:07:36;;;;;;;7.85;1.80;;;;;;;19.92;59.02;101884.13;4880027;29;20624;-73
2022/07/04 10:10:31;;;;;;;7.90;1.77;;;;;;;20.00;59.74;101877.31;4862745;29;20029;-72
2022/07/04 10:13:05;;;;;;;6.50;2.10;;;;;;;20.00;59.12;101875.44;4879723;29;20041;-72
2022/07/04 10:15:33;;;;;;;6.40;1.77;;;;;;;20.15;58.85;101880.16;4879737;29;20501;-73
2022/07/04 10:17:59;;;;;;;6.25;2.20;;;;;;;20.20;57.59;101873.91;4877806;29;20217;-72
2022/07/04 10:20:26;;;;;;;5.10;1.70;;;;;;;20.22;56.55;101871.72;4879326;29;20040;-72
2022/07/04 10:22:51;;;;;;;6.15;1.70;;;;;;;20.24;57.67;101855.78;4879500;29;20044;-74
2022/07/04 10:25:17;;;;;;;4.38;1.60;;;;;;;20.35;57.98;101863.00;4879117;29;20029;-73
2022/07/04 10:27:43;;;;;;;4.45;1.65;;;;;;;20.43;56.37;101860.84;4879416;29;20101;-72
2022/07/04 10:30:15;;;;;;;5.18;1.80;;;;;;;20.42;57.22;101856.44;4875980;29;20049;-73
2022/07/04 10:32:44;;;;;;;10.32;2.00;;;;;;;20.67;56.90;101855.75;4860767;29;20112;-73
2022/07/04 10:35:13;;;;;;;6.75;2.45;;;;;;;20.83;55.57;101859.38;4860580;29;20125;-72
2022/07/04 10:38:04;;;;;;;2.83;1.77;;;;;;;20.91;56.25;101852.53;4860263;29;20477;-73
2022/07/04 10:40:45;;;;;;;4.97;1.92;;;;;;;20.97;57.18;101851.44;4877997;29;20044;-72
2022/07/04 10:43:40;;;;;;;7.70;1.98;;;;;;;20.82;54.89;101854.97;4878963;29;20043;-73
2022/07/04 10:46:20;;;;;;;3.90;1.65;;;;;;;20.77;54.73;101843.97;4878905;29;20056;-74
2022/07/04 10:48:49;;;;;;;5.97;1.70;;;;;;;20.82;56.32;101844.81;4879063;29;20032;-72
2022/07/04 10:51:15;;;;;;;3.78;1.70;;;;;;;20.87;52.94;101841.25;4878547;29;20367;-73
2022/07/04 10:54:03;;;;;;;4.63;1.50;;;;;;;20.98;54.32;101851.19;4878792;29;20146;-74
2022/07/04 10:56:29;;;;;;;5.45;1.70;;;;;;;20.99;52.65;101844.59;4878935;29;20081;-74
2022/07/04 10:58:55;;;;;;;6.47;1.97;;;;;;;20.97;52.72;101835.78;4879145;29;20120;-73
2022/07/04 11:01:20;;;;;;;7.65;2.00;;;;;;;21.08;54.20;101838.56;4866572;29;20365;-73
2022/07/04 11:03:48;;;;;;;7.20;2.00;;;;;;;21.11;54.57;101841.59;4860450;29;20053;-74
2022/07/04 11:06:32;;;;;;;5.53;1.80;;;;;;;21.21;55.25;101835.25;4860064;29;20061;-72
2022/07/04 11:09:17;;;;;;;6.63;1.95;;;;;;;21.25;53.51;101842.69;4859976;29;20486;-72
2022/07/04 11:11:58;;;;;;;4.63;1.63;;;;;;;21.39;52.65;101843.00;4860066;29;20037;-72
2022/07/04 11:14:40;;;;;;;6.72;2.15;;;;;;;21.39;53.03;101837.50;4856420;29;20067;-74
2022/07/04 11:17:19;;;;;;;4.20;1.63;;;;;;;21.53;52.24;101837.81;4857708;29;20069;-73
2022/07/04 11:19:45;;;;;;;4.22;1.90;;;;;;;21.63;52.38;101836.97;4860282;29;20500;-74
2022/07/04 11:22:10;;;;;;;5.32;1.85;;;;;;;21.71;52.31;101836.44;4859984;29;20029;-72
2022/07/04 11:24:39;;;;;;;7.00;1.65;;;;;;;21.76;51.49;101841.94;4860249;29;20722;-74
2022/07/04 11:27:11;;;;;;;12.35;1.85;;;;;;;21.66;52.04;101836.41;4860209;29;20037;-73
2022/07/04 11:29:36;;;;;;;5.53;1.83;;;;;;;21.60;52.33;101832.00;4860035;29;20044;-73
2022/07/04 11:32:06;;;;;;;8.48;1.95;;;;;;;21.62;52.32;101840.84;4877552;29;20393;-73
2022/07/04 11:34:33;;;;;;;4.70;1.75;;;;;;;21.67;51.07;101832.56;4878388;29;20036;-73
2022/07/04 11:37:01;;;;;;;5.20;1.60;;;;;;;21.71;50.82;101833.69;4877733;29;20097;-73
2022/07/04 11:39:26;;;;;;;4.57;1.75;;;;;;;21.81;49.84;101837.53;4878533;29;20033;-74